createdAt,value
2022-10-19T00:02:45.873Z,13.85
2022-10-19T00:07:49.666Z,10.95
2022-10-19T00:12:52.234Z,11.80
2022-10-19T00:17:54.714Z,6.32
2022-10-19T00:22:57.853Z,7.97
2022-10-19T00:28:01.279Z,17.13
2022-10-19T00:33:04.831Z,8.75
2022-10-19T00:38:07.449Z,11.40
2022-10-19T00:43:18.718Z,9.75
2022-10-19T00:48:30.910Z,14.07
2022-10-19T00:53:33.497Z,6.10
2022-10-19T00:58:36.380Z,12.23
2022-10-19T01:03:40.783Z,9.55
2022-10-19T01:08:43.441Z,11.48
2022-10-19T01:14:04.741Z,11.00
2022-10-19T01:19:29.586Z,12.88
2022-10-19T01:24:40.575Z,7.75
2022-10-19T01:30:11.279Z,9.25
2022-10-19T01:35:19.590Z,14.27
2022-10-19T01:40:33.325Z,10.80
2022-10-19T01:45:52.340Z,9.10
2022-10-19T01:51:00.717Z,12.32
2022-10-19T01:56:05.989Z,7.82
2022-10-19T02:06:14.465Z,13.18
2022-10-19T02:11:17.843Z,11.90
2022-10-19T02:16:35.599Z,10.80
2022-10-19T02:21:38.124Z,10.40
2022-10-19T02:26:41.037Z,8.15
2022-10-19T02:31:44.226Z,8.13
2022-10-19T02:36:46.887Z,10.20
2022-10-19T02:42:00.197Z,6.65
2022-10-19T02:47:08.117Z,13.52
2022-10-19T02:52:13.834Z,5.80
2022-10-19T02:57:17.942Z,9.57
2022-10-19T03:02:21.052Z,11.03
2022-10-19T03:07:23.891Z,8.00
2022-10-19T03:12:29.313Z,6.60
2022-10-19T03:17:32.320Z,6.47
2022-10-19T03:22:36.691Z,8.13
2022-10-19T03:27:39.433Z,14.63
2022-10-19T03:32:47.199Z,16.95
2022-10-19T03:37:50.014Z,11.80
2022-10-19T03:42:52.473Z,12.77
2022-10-19T03:47:55.052Z,12.55
2022-10-19T03:52:57.596Z,5.22
2022-10-19T03:58:00.204Z,9.20
2022-10-19T04:03:05.269Z,6.82
2022-10-19T04:08:07.833Z,10.82
2022-10-19T04:13:10.930Z,11.35
2022-10-19T04:18:14.493Z,5.50
2022-10-19T04:28:24.385Z,6.03
2022-10-19T04:33:29.516Z,8.65
2022-10-19T04:38:32.406Z,5.45
2022-10-19T04:43:37.360Z,12.20
2022-10-19T04:48:40.555Z,5.63
2022-10-19T04:53:44.184Z,18.45
2022-10-19T04:58:47.020Z,9.70
2022-10-19T05:08:59.900Z,5.55
2022-10-19T05:14:02.499Z,5.65
2022-10-19T05:19:05.048Z,6.38
2022-10-19T05:24:07.609Z,5.68
2022-10-19T05:29:12.159Z,6.70
2022-10-19T05:34:14.791Z,7.22
2022-10-19T05:39:18.559Z,8.30
2022-10-19T05:44:23.395Z,5.38
2022-10-19T05:49:26.027Z,5.82
2022-10-19T05:54:28.794Z,4.32
2022-10-19T05:59:32.209Z,7.97
2022-10-19T06:04:34.981Z,5.53
2022-10-19T06:09:37.586Z,5.93
2022-10-19T06:14:40.465Z,8.00
2022-10-19T06:19:44.118Z,5.68
2022-10-19T06:24:48.147Z,4.75
2022-10-19T06:29:52.282Z,8.33
2022-10-19T06:34:56.532Z,5.07
2022-10-19T06:40:02.368Z,10.77
2022-10-19T06:45:11.235Z,8.40
2022-10-19T06:50:13.885Z,8.00
2022-10-19T06:55:17.932Z,12.10
2022-10-19T07:00:20.700Z,8.57
2022-10-19T07:05:23.323Z,10.20
2022-10-19T07:10:44.698Z,8.75
2022-10-19T07:15:47.696Z,6.25
2022-10-19T07:20:58.723Z,8.43
2022-10-19T07:26:08.106Z,11.57
2022-10-19T07:31:13.928Z,9.85
2022-10-19T07:36:16.511Z,13.05
2022-10-19T07:41:21.119Z,15.32
2022-10-19T07:46:25.838Z,19.25
2022-10-19T07:56:33.190Z,17.02
2022-10-19T08:01:43.510Z,23.23
2022-10-19T08:06:46.733Z,46.92
2022-10-19T08:11:49.564Z,68.90
2022-10-19T08:16:52.335Z,69.60
2022-10-19T08:21:55.151Z,78.07
2022-10-19T08:26:57.601Z,101.20
2022-10-19T08:32:00.480Z,105.13
2022-10-19T08:37:10.308Z,121.85
2022-10-19T08:42:47.900Z,122.30
2022-10-19T08:47:57.844Z,124.40
2022-10-19T08:53:17.037Z,121.40
2022-10-19T08:58:44.566Z,101.00
2022-10-19T09:04:18.738Z,118.22
2022-10-19T09:09:21.472Z,126.07
2022-10-19T09:15:07.826Z,114.40
2022-10-19T09:20:19.160Z,93.97
2022-10-19T09:25:23.402Z,98.13
2022-10-19T09:30:28.315Z,89.25
2022-10-19T09:35:36.843Z,71.13
2022-10-19T09:41:07.690Z,72.80
2022-10-19T09:46:20.064Z,65.75
2022-10-19T09:51:23.636Z,64.07
2022-10-19T09:56:27.874Z,37.00
2022-10-19T10:01:43.499Z,32.00
2022-10-19T10:06:48.408Z,27.48
2022-10-19T10:17:02.632Z,15.80
2022-10-19T10:22:05.179Z,14.85
2022-10-19T10:27:28.507Z,14.98
2022-10-19T10:32:31.410Z,11.40
2022-10-19T10:37:41.311Z,9.57
2022-10-19T10:42:46.473Z,8.95
2022-10-19T10:47:49.335Z,11.75
2022-10-19T10:53:06.137Z,22.85
2022-10-19T10:58:36.438Z,11.63
2022-10-19T11:03:46.386Z,14.43
2022-10-19T11:09:16.012Z,11.23
2022-10-19T11:14:47.301Z,12.82
2022-10-19T11:19:51.377Z,10.00
2022-10-19T11:25:15.455Z,10.82
2022-10-19T11:30:23.432Z,12.73
2022-10-19T11:35:42.827Z,11.73
2022-10-19T11:41:22.009Z,17.90
2022-10-19T11:46:35.560Z,9.55
2022-10-19T11:51:57.694Z,17.40
2022-10-19T11:57:20.596Z,14.35
2022-10-19T12:02:47.161Z,16.23
2022-10-19T12:08:04.458Z,13.30
2022-10-19T12:13:12.477Z,8.35
2022-10-19T12:18:43.800Z,10.30
2022-10-19T12:23:47.019Z,12.00
2022-10-19T12:28:59.570Z,9.87
2022-10-19T12:34:08.061Z,10.55
2022-10-19T12:39:21.204Z,10.60
2022-10-19T12:45:00.362Z,11.48
2022-10-19T12:50:03.448Z,15.68
2022-10-19T12:55:16.104Z,12.18
2022-10-19T13:00:21.767Z,10.60
2022-10-19T13:05:26.259Z,11.63
2022-10-19T13:15:37.379Z,13.40
2022-10-19T13:25:43.809Z,6.67
2022-10-19T13:30:47.536Z,11.02
2022-10-19T13:36:08.544Z,9.63
2022-10-19T13:41:24.092Z,11.52
2022-10-19T13:46:29.819Z,9.80
2022-10-19T13:51:49.338Z,7.47
2022-10-19T13:57:13.521Z,7.95
2022-10-19T14:02:31.457Z,12.13
2022-10-19T14:08:26.589Z,11.65
2022-10-19T14:13:29.735Z,20.73
2022-10-19T14:18:35.126Z,13.00
2022-10-19T14:23:42.819Z,12.57
2022-10-19T14:28:47.685Z,13.73
2022-10-19T14:33:56.787Z,15.93
2022-10-19T14:39:00.920Z,9.15
2022-10-19T14:44:35.862Z,12.18
2022-10-19T14:49:38.478Z,8.45
2022-10-19T14:54:44.319Z,15.18
2022-10-19T15:00:10.690Z,9.38
2022-10-19T15:05:24.870Z,9.15
2022-10-19T15:15:34.934Z,11.95
2022-10-19T15:20:49.486Z,11.77
2022-10-19T15:26:33.505Z,9.88
2022-10-19T15:31:36.245Z,19.48
2022-10-19T15:36:38.831Z,6.78
2022-10-19T15:41:41.680Z,10.18
2022-10-19T15:46:48.003Z,12.70
2022-10-19T15:51:51.128Z,13.10
2022-10-19T15:56:54.332Z,16.73
2022-10-19T16:01:57.098Z,12.38
2022-10-19T16:06:59.636Z,12.32
2022-10-19T16:12:02.325Z,10.52
2022-10-19T16:17:05.268Z,12.88
2022-10-19T16:22:08.967Z,15.80
2022-10-19T16:27:15.215Z,10.63
2022-10-19T16:32:17.807Z,13.50
2022-10-19T16:37:20.746Z,11.23
2022-10-19T16:42:25.653Z,11.10
2022-10-19T16:47:30.731Z,16.50
2022-10-19T16:52:33.769Z,16.73
2022-10-19T16:57:37.167Z,11.80
2022-10-19T17:02:42.001Z,18.52
2022-10-19T17:07:47.052Z,13.32
2022-10-19T17:12:49.667Z,18.65
2022-10-19T17:17:52.348Z,19.10
2022-10-19T17:22:55.215Z,16.63
2022-10-19T17:28:00.100Z,13.75
2022-10-19T17:33:03.247Z,15.60
2022-10-19T17:38:06.579Z,24.42
2022-10-19T17:43:10.921Z,17.08
2022-10-19T17:48:13.426Z,24.15
2022-10-19T17:53:15.998Z,21.52
2022-10-19T17:58:18.914Z,29.95
2022-10-19T18:03:22.944Z,17.95
2022-10-19T18:08:26.344Z,16.25
2022-10-19T18:13:29.298Z,17.08
2022-10-19T18:18:34.127Z,15.90
2022-10-19T18:23:39.613Z,14.70
2022-10-19T18:28:42.930Z,22.20
2022-10-19T18:33:54.429Z,19.20
2022-10-19T18:38:59.694Z,15.35
2022-10-19T18:44:05.364Z,22.55
2022-10-19T18:49:10.723Z,22.95
2022-10-19T18:54:13.282Z,18.48
2022-10-19T18:59:16.959Z,16.33
2022-10-19T19:04:19.717Z,22.97
2022-10-19T19:09:22.260Z,16.83
2022-10-19T19:14:26.393Z,16.77
2022-10-19T19:19:30.290Z,20.13
2022-10-19T19:24:32.993Z,12.63
2022-10-19T19:29:37.025Z,32.25
2022-10-19T19:34:39.652Z,20.17
2022-10-19T19:39:42.752Z,14.48
2022-10-19T19:44:45.461Z,17.00
2022-10-19T19:49:49.361Z,13.57
2022-10-19T19:54:52.988Z,11.00
2022-10-19T19:59:56.414Z,20.70
2022-10-19T20:04:59.204Z,20.08
2022-10-19T20:10:02.723Z,16.38
2022-10-19T20:15:06.756Z,24.23
2022-10-19T20:20:11.746Z,20.33
2022-10-19T20:25:14.542Z,13.68
2022-10-19T20:30:17.250Z,14.15
2022-10-19T20:35:20.541Z,15.35
2022-10-19T20:40:23.146Z,17.08
2022-10-19T20:45:25.961Z,17.30
2022-10-19T20:50:28.522Z,19.40
2022-10-19T20:55:31.035Z,13.93
2022-10-19T21:00:33.610Z,12.15
2022-10-19T21:05:38.363Z,14.52
2022-10-19T21:10:40.928Z,24.88
2022-10-19T21:15:43.493Z,18.15
2022-10-19T21:20:47.468Z,18.70
2022-10-19T21:25:54.941Z,17.15
2022-10-19T21:30:57.550Z,17.10
2022-10-19T21:36:07.529Z,22.98
2022-10-19T21:41:20.852Z,19.15
2022-10-19T21:46:27.028Z,21.13
2022-10-19T21:51:35.775Z,19.27
2022-10-19T21:56:38.555Z,13.77
2022-10-19T22:01:41.884Z,20.60
2022-10-19T22:06:44.894Z,15.48
2022-10-19T22:11:47.591Z,20.30
2022-10-19T22:16:50.464Z,15.00
2022-10-19T22:21:53.048Z,14.98
2022-10-19T22:26:56.854Z,20.55
2022-10-19T22:32:00.510Z,19.57
2022-10-19T22:37:03.352Z,19.33
2022-10-19T22:42:59.967Z,22.40
2022-10-19T22:48:03.562Z,17.63
2022-10-19T22:53:06.234Z,14.48
2022-10-19T22:58:09.590Z,26.98
2022-10-19T23:03:12.242Z,22.50
2022-10-19T23:08:14.985Z,15.90
2022-10-19T23:13:17.531Z,20.00
2022-10-19T23:18:20.886Z,25.25
2022-10-19T23:23:24.296Z,27.52
2022-10-19T23:28:27.187Z,24.73
2022-10-19T23:33:29.659Z,24.33
2022-10-19T23:38:32.363Z,15.55
2022-10-19T23:48:37.982Z,18.45
2022-10-19T23:53:42.783Z,15.00
2022-10-19T23:58:45.797Z,21.27
